Time;durP1;ratioP1;P1;durP2;ratioP2;P2;SDS_P1;SDS_P2;PMS_P1;PMS_P2;Temp;Humidity;BMP_temperature;BMP_pressure;BME280_temperature;BME280_humidity;BME280_pressure;Samples;Min_cycle;Max_cycle;Signal;HPM_P1;HPM_P2
2023/07/07 00:01:55;;;;;;;16.70;6.80;;;;;;;14.12;100.00;101588.72;6183988;23;20370;-76
2023/07/07 00:04:21;;;;;;;13.18;6.22;;;;;;;14.15;100.00;101589.34;6183733;23;20028;-76
2023/07/07 00:06:47;;;;;;;11.10;6.55;;;;;;;14.17;100.00;101586.47;6184074;23;20008;-76
2023/07/07 00:09:12;;;;;;;16.15;6.75;;;;;;;14.13;100.00;101585.84;6184069;23;20012;-74
2023/07/07 00:11:38;;;;;;;14.15;7.07;;;;;;;14.20;100.00;101588.97;6158820;23;20017;-75
2023/07/07 00:14:04;;;;;;;15.13;7.03;;;;;;;14.11;100.00;101593.34;6183674;23;20123;-75
2023/07/07 00:16:29;;;;;;;17.75;7.32;;;;;;;14.13;100.00;101596.88;6159072;23;20068;-75
2023/07/07 00:18:56;;;;;;;19.23;7.60;;;;;;;14.15;100.00;101586.59;6184891;23;20402;-76
2023/07/07 00:21:24;;;;;;;20.63;7.43;;;;;;;14.00;100.00;101587.84;6184040;23;20091;-76
2023/07/07 00:23:55;;;;;;;14.85;7.97;;;;;;;14.05;100.00;101582.84;6183560;23;20440;-76
2023/07/07 00:26:21;;;;;;;16.17;6.60;;;;;;;14.07;100.00;101586.34;6183841;23;20013;-76
2023/07/07 00:28:47;;;;;;;20.52;8.00;;;;;;;14.07;100.00;101586.34;6183749;23;20013;-76
2023/07/07 00:31:13;;;;;;;17.55;7.30;;;;;;;14.02;100.00;101591.38;6184046;23;20044;-76
2023/07/07 00:33:39;;;;;;;11.90;7.20;;;;;;;13.99;100.00;101597.13;6209355;23;20335;-76
2023/07/07 00:36:05;;;;;;;14.00;7.60;;;;;;;14.01;100.00;101595.13;6183717;23;20071;-76
2023/07/07 00:38:30;;;;;;;17.10;7.22;;;;;;;13.95;100.00;101579.97;6186040;23;20014;-76
2023/07/07 00:40:59;;;;;;;18.98;7.63;;;;;;;13.87;100.00;101585.25;6183713;23;20021;-76
2023/07/07 00:43:25;;;;;;;11.45;7.20;;;;;;;13.89;100.00;101585.13;6183889;23;20008;-76
2023/07/07 00:45:51;;;;;;;15.13;8.52;;;;;;;13.82;100.00;101581.97;6184036;23;20009;-76
2023/07/07 00:48:39;;;;;;;13.50;7.40;;;;;;;13.85;100.00;101587.22;6184100;23;20013;-76
2023/07/07 00:51:20;;;;;;;10.30;7.10;;;;;;;13.82;100.00;101589.34;6183659;23;20009;-76
2023/07/07 00:53:49;;;;;;;14.45;7.40;;;;;;;13.71;100.00;101588.34;6184318;23;20011;-76
2023/07/07 00:56:30;;;;;;;16.83;7.10;;;;;;;13.78;100.00;101592.34;6184173;23;20452;-76
2023/07/07 00:59:01;;;;;;;12.85;7.80;;;;;;;13.70;100.00;101585.72;6183842;23;20324;-76
2023/07/07 01:01:27;;;;;;;19.83;7.93;;;;;;;13.68;100.00;101588.59;6183782;23;20040;-76
2023/07/07 01:04:01;;;;;;;13.25;7.55;;;;;;;13.60;100.00;101591.09;6183709;23;20088;-76
2023/07/07 01:06:31;;;;;;;12.32;7.10;;;;;;;13.53;100.00;101585.19;6185184;23;20016;-76
2023/07/07 01:09:08;;;;;;;15.35;7.22;;;;;;;13.58;100.00;101596.72;6184078;23;20067;-76
2023/07/07 01:11:35;;;;;;;19.90;8.30;;;;;;;13.56;100.00;101597.81;6185614;23;20012;-76
2023/07/07 01:14:05;;;;;;;15.73;7.22;;;;;;;13.60;100.00;101599.34;6187266;23;20004;-76
2023/07/07 01:16:39;;;;;;;18.73;9.02;;;;;;;13.67;100.00;101594.22;6186666;23;20063;-76
2023/07/07 01:19:15;;;;;;;16.98;7.38;;;;;;;13.61;100.00;101601.13;6185636;23;20024;-76
2023/07/07 01:21:59;;;;;;;22.90;7.90;;;;;;;13.68;100.00;101598.75;6187023;23;20005;-76
2023/07/07 01:24:30;;;;;;;14.55;7.20;;;;;;;13.64;100.00;101600.84;6186530;23;20005;-76
2023/07/07 01:27:33;;;;;;;14.50;8.48;;;;;;;13.52;100.00;101607.34;6185354;23;20020;-76
2023/07/07 01:30:43;;;;;;;20.88;8.00;;;;;;;13.49;100.00;101596.56;6185133;23;20056;-76
2023/07/07 01:33:13;;;;;;;11.95;7.57;;;;;;;13.55;100.00;101596.09;6129468;23;20016;-76
2023/07/07 01:35:39;;;;;;;15.23;7.75;;;;;;;13.55;100.00;101593.34;6187115;23;20013;-76
2023/07/07 01:38:05;;;;;;;19.17;7.18;;;;;;;13.45;100.00;101593.19;6185089;23;20456;-76
2023/07/07 01:40:49;;;;;;;11.27;7.20;;;;;;;13.36;100.00;101603.06;6185464;23;20019;-76
2023/07/07 01:43:30;;;;;;;11.27;8.07;;;;;;;13.51;100.00;101594.56;6185124;23;20130;-76
2023/07/07 01:46:06;;;;;;;18.35;8.38;;;;;;;13.50;100.00;101595.59;6187193;23;20009;-76
2023/07/07 01:48:42;;;;;;;10.55;6.72;;;;;;;13.54;100.00;101592.47;6186953;23;20005;-75
2023/07/07 01:51:11;;;;;;;15.73;7.65;;;;;;;13.38;100.00;101586.41;6187294;23;20044;-76
2023/07/07 01:53:39;;;;;;;15.90;7.70;;;;;;;13.36;100.00;101586.56;6186972;23;20013;-75
2023/07/07 01:56:07;;;;;;;18.50;7.40;;;;;;;13.33;100.00;101581.31;6185578;23;20016;-76
2023/07/07 01:58:34;;;;;;;18.63;8.55;;;;;;;13.39;100.00;101588.19;6160760;23;20005;-76
2023/07/07 02:01:01;;;;;;;12.57;7.28;;;;;;;13.40;100.00;101584.44;6161435;23;20013;-76
2023/07/07 02:03:27;;;;;;;14.70;7.68;;;;;;;13.33;100.00;101591.41;6185792;23;20106;-76
2023/07/07 02:05:53;;;;;;;11.10;7.53;;;;;;;13.15;100.00;101585.44;6186551;23;20846;-75
2023/07/07 02:08:18;;;;;;;14.60;7.50;;;;;;;13.14;100.00;101589.22;6187130;23;20011;-76
2023/07/07 02:10:43;;;;;;;13.13;7.30;;;;;;;13.19;100.00;101589.72;6160841;23;20009;-76
2023/07/07 02:13:10;;;;;;;11.70;8.10;;;;;;;13.17;100.00;101589.84;6160166;23;20044;-76
2023/07/07 02:15:35;;;;;;;17.83;8.35;;;;;;;13.14;100.00;101580.97;6185508;23;20062;-76
2023/07/07 02:18:03;;;;;;;16.13;8.10;;;;;;;13.00;100.00;101582.91;6160511;23;20017;-76
2023/07/07 02:20:29;;;;;;;16.35;7.78;;;;;;;12.97;100.00;101583.16;6185990;23;20449;-76
2023/07/07 02:22:54;;;;;;;29.52;8.52;;;;;;;12.93;100.00;101576.13;6184967;23;20095;-76
2023/07/07 02:25:20;;;;;;;10.65;7.25;;;;;;;12.86;100.00;101575.72;6184886;23;20063;-76
2023/07/07 02:27:45;;;;;;;11.70;7.85;;;;;;;12.92;100.00;101581.75;6184736;23;20004;-75
2023/07/07 02:30:11;;;;;;;11.43;6.95;;;;;;;12.98;100.00;101584.88;6237865;23;20024;-76
2023/07/07 02:32:36;;;;;;;14.35;7.28;;;;;;;12.98;100.00;101586.78;6219832;23;20012;-76
2023/07/07 02:35:03;;;;;;;11.60;6.80;;;;;;;12.74;100.00;101567.56;6219850;23;20373;-76
2023/07/07 02:37:29;;;;;;;13.65;6.97;;;;;;;12.98;100.00;101593.13;6246684;23;20012;-76
2023/07/07 02:39:54;;;;;;;14.02;7.60;;;;;;;12.83;100.00;101588.84;6246617;23;20317;-76
2023/07/07 02:42:20;;;;;;;20.27;7.00;;;;;;;12.76;100.00;101576.56;6219783;23;20011;-76
2023/07/07 02:44:46;;;;;;;17.30;7.53;;;;;;;12.79;100.00;101585.44;6219286;23;20008;-76
2023/07/07 02:47:11;;;;;;;13.50;6.45;;;;;;;12.75;100.00;101585.81;6219757;23;20012;-76
2023/07/07 02:49:37;;;;;;;17.45;7.47;;;;;;;12.77;100.00;101587.41;6219715;23;20008;-75
2023/07/07 02:52:04;;;;;;;24.15;6.97;;;;;;;12.81;100.00;101593.59;6219876;23;20039;-76
2023/07/07 02:54:29;;;;;;;14.70;7.28;;;;;;;12.76;100.00;101591.19;6194383;23;20032;-76
2023/07/07 02:56:55;;;;;;;13.18;7.50;;;;;;;12.77;100.00;101586.56;6169583;23;20036;-76
2023/07/07 02:59:20;;;;;;;13.30;7.57;;;;;;;12.74;100.00;101589.53;6246377;23;20413;-76
2023/07/07 03:01:46;;;;;;;12.93;7.47;;;;;;;12.68;100.00;101591.75;6170011;23;20008;-76
2023/07/07 03:04:13;;;;;;;9.63;6.63;;;;;;;12.76;100.00;101604.06;6194453;23;20008;-76
2023/07/07 03:06:38;;;;;;;15.18;7.40;;;;;;;12.79;100.00;101595.56;6194350;23;20385;-76
2023/07/07 03:09:04;;;;;;;9.57;6.47;;;;;;;12.67;100.00;101606.50;6220004;23;20066;-76
2023/07/07 03:11:30;;;;;;;13.65;7.07;;;;;;;12.72;100.00;101602.53;6194306;23;20297;-76
2023/07/07 03:13:55;;;;;;;16.75;7.53;;;;;;;12.74;100.00;101606.03;6246286;23;20057;-76
2023/07/07 03:16:30;;;;;;;13.68;7.47;;;;;;;12.65;100.00;101593.88;6194627;23;20012;-76
2023/07/07 03:19:03;;;;;;;11.90;6.88;;;;;;;12.68;100.00;101605.50;6246064;23;20011;-76
2023/07/07 03:21:31;;;;;;;13.27;6.70;;;;;;;12.66;100.00;101609.38;6219198;23;20015;-76
2023/07/07 03:23:57;;;;;;;14.98;7.10;;;;;;;12.62;100.00;101605.94;6219744;23;20024;-76
2023/07/07 03:26:24;;;;;;;15.93;7.32;;;;;;;12.56;100.00;101602.78;6246399;23;20044;-76
2023/07/07 03:28:50;;;;;;;14.70;7.22;;;;;;;12.62;100.00;101614.19;6193707;23;20012;-76
2023/07/07 03:31:28;;;;;;;14.90;7.00;;;;;;;12.63;100.00;101615.09;6193955;23;20059;-76
2023/07/07 03:33:57;;;;;;;25.88;7.47;;;;;;;12.68;100.00;101621.97;6219445;23;20008;-76
2023/07/07 03:36:25;;;;;;;14.75;7.65;;;;;;;12.70;100.00;101619.13;6194309;23;20004;-76
2023/07/07 03:38:51;;;;;;;15.82;6.90;;;;;;;12.68;100.00;101616.50;6218961;23;20309;-76
2023/07/07 03:41:21;;;;;;;16.80;7.80;;;;;;;12.64;100.00;101619.56;6245943;23;20012;-76
2023/07/07 03:43:47;;;;;;;8.88;6.13;;;;;;;12.67;100.00;101627.59;6194253;23;20038;-76
2023/07/07 03:46:15;;;;;;;19.05;8.10;;;;;;;12.71;100.00;101620.00;6246214;23;20004;-76
2023/07/07 03:48:41;;;;;;;13.45;6.68;;;;;;;12.56;100.00;101611.94;6245789;23;20398;-76
2023/07/07 03:51:07;;;;;;;12.52;7.40;;;;;;;12.53;100.00;101612.16;6219368;23;20015;-76
2023/07/07 03:53:33;;;;;;;16.95;8.00;;;;;;;12.39;100.00;101615.94;6169132;23;20012;-76
2023/07/07 03:55:59;;;;;;;14.68;7.20;;;;;;;12.50;100.00;101616.00;6245973;23;20014;-76
2023/07/07 03:58:26;;;;;;;13.63;7.82;;;;;;;12.40;100.00;101620.44;6245802;23;20040;-76
2023/07/07 04:00:52;;;;;;;13.23;7.30;;;;;;;12.51;100.00;101616.91;6219399;23;20012;-76
2023/07/07 04:03:18;;;;;;;15.15;7.70;;;;;;;12.53;100.00;101614.91;6219038;23;20098;-76
2023/07/07 04:05:49;;;;;;;29.85;7.47;;;;;;;12.46;100.00;101610.84;6246077;23;20016;-76
2023/07/07 04:08:21;;;;;;;17.85;8.10;;;;;;;12.45;100.00;101617.34;6218990;23;20023;-76
2023/07/07 04:10:59;;;;;;;18.55;7.38;;;;;;;12.41;100.00;101613.97;6219536;23;20008;-76
2023/07/07 04:13:25;;;;;;;15.05;8.30;;;;;;;12.46;100.00;101620.00;6219233;23;20008;-76
2023/07/07 04:16:01;;;;;;;16.75;8.00;;;;;;;12.48;100.00;101629.00;6219341;23;20087;-76
2023/07/07 04:18:27;;;;;;;22.23;8.32;;;;;;;12.51;100.00;101630.66;6219272;23;20008;-76
2023/07/07 04:20:52;;;;;;;25.27;9.02;;;;;;;12.57;100.00;101626.53;6194050;23;20016;-76
2023/07/07 04:23:17;;;;;;;12.52;8.38;;;;;;;12.63;100.00;101629.69;6245636;23;20012;-76
2023/07/07 04:25:46;;;;;;;15.73;8.55;;;;;;;12.61;100.00;101619.81;6193792;23;20436;-76
2023/07/07 04:28:11;;;;;;;19.63;8.77;;;;;;;12.85;100.00;101628.06;6218539;23;20733;-76
2023/07/07 04:30:37;;;;;;;20.30;8.82;;;;;;;12.79;100.00;101628.53;6169058;23;20091;-76
2023/07/07 04:33:03;;;;;;;15.63;9.27;;;;;;;12.82;100.00;101633.78;6218921;23;20012;-76
2023/07/07 04:35:28;;;;;;;15.82;8.60;;;;;;;13.02;100.00;101622.16;6243934;23;20344;-76
2023/07/07 04:37:54;;;;;;;25.98;9.35;;;;;;;13.00;100.00;101626.91;6193858;23;20016;-76
2023/07/07 04:40:19;;;;;;;15.48;9.50;;;;;;;12.99;100.00;101621.53;6219479;23;20008;-76
2023/07/07 04:42:45;;;;;;;13.65;9.90;;;;;;;13.18;100.00;101618.22;6193695;23;20023;-76
2023/07/07 04:45:10;;;;;;;22.35;9.32;;;;;;;13.16;100.00;101612.81;6168841;23;20562;-76
2023/07/07 04:47:38;;;;;;;19.75;9.45;;;;;;;13.22;100.00;101619.72;6219171;23;20004;-76
2023/07/07 04:50:04;;;;;;;15.70;9.45;;;;;;;13.22;100.00;101619.72;6194501;23;20019;-76
2023/07/07 04:52:29;;;;;;;17.55;9.15;;;;;;;13.26;100.00;101621.22;6218653;23;20016;-76
2023/07/07 04:54:55;;;;;;;14.63;9.25;;;;;;;13.32;100.00;101625.41;6193853;23;20016;-76
2023/07/07 04:57:20;;;;;;;20.48;9.27;;;;;;;13.39;100.00;101633.06;6193735;23;20018;-76
2023/07/07 04:59:46;;;;;;;16.98;8.65;;;;;;;13.50;100.00;101626.72;6245386;23;20008;-76
2023/07/07 05:02:11;;;;;;;20.92;10.88;;;;;;;13.54;100.00;101631.00;6245988;23;20036;-76
2023/07/07 05:04:37;;;;;;;17.17;8.70;;;;;;;13.65;100.00;101627.38;6168783;23;20008;-75
2023/07/07 05:07:02;;;;;;;14.43;8.60;;;;;;;13.76;100.00;101632.91;6194116;23;20004;-76
2023/07/07 05:09:28;;;;;;;16.70;8.23;;;;;;;13.89;100.00;101634.69;6245418;23;20012;-76
2023/07/07 05:11:53;;;;;;;14.20;8.23;;;;;;;14.07;100.00;101624.91;6218729;23;20332;-76
2023/07/07 05:14:19;;;;;;;13.18;8.48;;;;;;;14.20;100.00;101621.13;6245638;23;20016;-76
2023/07/07 05:16:44;;;;;;;14.95;8.00;;;;;;;14.22;100.00;101630.16;6245151;23;20047;-76
2023/07/07 05:19:09;;;;;;;15.18;8.55;;;;;;;14.28;100.00;101618.63;6245480;23;20395;-76
2023/07/07 05:21:35;;;;;;;11.30;6.80;;;;;;;14.49;100.00;101629.75;6218434;23;20016;-75
2023/07/07 05:24:01;;;;;;;14.43;7.75;;;;;;;14.74;100.00;101616.69;6193755;23;20043;-76
2023/07/07 05:26:27;;;;;;;20.95;7.95;;;;;;;15.13;100.00;101623.41;6218844;23;20015;-76
2023/07/07 05:28:53;;;;;;;17.67;7.47;;;;;;;15.24;100.00;101620.63;6218546;23;20105;-76
2023/07/07 05:31:19;;;;;;;11.32;6.40;;;;;;;15.61;100.00;101624.81;6193773;23;20016;-76
2023/07/07 05:33:45;;;;;;;9.77;6.45;;;;;;;15.99;100.00;101626.94;6218647;23;20023;-76
2023/07/07 05:36:10;;;;;;;12.90;6.75;;;;;;;16.57;100.00;101633.69;6218702;23;20008;-76
2023/07/07 05:38:39;;;;;;;9.95;6.88;;;;;;;16.89;100.00;101632.66;6218275;23;20432;-76
2023/07/07 05:41:05;;;;;;;16.70;6.50;;;;;;;17.33;100.00;101633.09;6218978;23;20010;-76
2023/07/07 05:43:30;;;;;;;15.93;6.28;;;;;;;17.97;100.00;101639.84;6218257;23;20391;-76
2023/07/07 05:46:01;;;;;;;12.52;6.20;;;;;;;18.50;100.00;101635.53;6245378;23;20363;-76
2023/07/07 05:48:28;;;;;;;12.80;5.60;;;;;;;18.91;100.00;101633.25;6218505;23;20039;-75
2023/07/07 05:50:58;;;;;;;10.05;5.72;;;;;;;19.10;100.00;101648.91;6219044;23;20016;-76
2023/07/07 05:53:24;;;;;;;13.15;6.65;;;;;;;19.48;100.00;101640.41;6245326;23;20443;-76
2023/07/07 05:55:50;;;;;;;15.77;6.75;;;;;;;19.46;100.00;101640.56;6219673;23;20012;-76
2023/07/07 05:58:17;;;;;;;15.57;7.18;;;;;;;19.09;100.00;101640.72;6195134;23;20083;-76
2023/07/07 06:00:42;;;;;;;15.30;6.88;;;;;;;19.45;100.00;101626.81;6246967;23;20008;-77
2023/07/07 06:03:08;;;;;;;12.98;6.28;;;;;;;19.84;100.00;101634.78;6194883;23;20058;-76
2023/07/07 06:05:34;;;;;;;11.70;6.10;;;;;;;20.12;99.48;101640.16;6194979;23;20042;-76
2023/07/07 06:08:00;;;;;;;8.25;5.07;;;;;;;19.59;100.00;101637.34;6219740;23;20016;-76
2023/07/07 06:10:26;;;;;;;9.32;4.82;;;;;;;21.02;100.00;101643.34;6246635;23;20008;-76
2023/07/07 06:12:52;;;;;;;12.10;5.15;;;;;;;21.95;86.21;101636.56;6219949;23;20022;-76
2023/07/07 06:15:18;;;;;;;7.88;4.53;;;;;;;21.31;87.57;101633.59;6219409;23;20008;-76
2023/07/07 06:17:48;;;;;;;10.90;4.95;;;;;;;21.64;87.82;101639.22;6246490;23;20018;-76
2023/07/07 06:20:14;;;;;;;15.80;5.13;;;;;;;21.50;86.35;101640.78;6219641;23;20020;-76
2023/07/07 06:22:40;;;;;;;12.88;5.68;;;;;;;21.41;87.82;101641.78;6219500;23;20089;-76
2023/07/07 06:25:05;;;;;;;12.88;5.90;;;;;;;21.79;87.84;101639.38;6246464;23;20036;-76
2023/07/07 06:27:31;;;;;;;22.75;7.13;;;;;;;22.19;85.36;101640.34;6169857;23;20012;-77
2023/07/07 06:29:57;;;;;;;13.75;5.90;;;;;;;22.30;78.81;101644.69;6219554;23;20020;-76
2023/07/07 06:32:22;;;;;;;10.65;5.45;;;;;;;23.00;76.33;101642.97;6219723;23;20008;-77
2023/07/07 06:34:48;;;;;;;16.38;5.97;;;;;;;22.62;75.78;101651.19;6246447;23;20098;-76
2023/07/07 06:37:13;;;;;;;10.02;5.75;;;;;;;22.87;76.66;101651.94;6194533;23;20448;-76
2023/07/07 06:39:38;;;;;;;13.68;6.18;;;;;;;22.25;79.29;101647.13;6219525;23;20345;-76
2023/07/07 06:42:04;;;;;;;11.50;6.25;;;;;;;22.97;78.11;101646.13;6219281;23;20012;-76
2023/07/07 06:44:30;;;;;;;11.40;6.90;;;;;;;22.39;82.54;101652.84;6169930;23;20017;-77
2023/07/07 06:46:55;;;;;;;12.00;6.40;;;;;;;23.16;78.41;101656.00;6246010;23;20016;-76
2023/07/07 06:49:21;;;;;;;10.63;6.20;;;;;;;23.25;76.02;101663.25;6194401;23;20459;-76
2023/07/07 06:51:46;;;;;;;12.60;5.38;;;;;;;22.71;80.05;101656.56;6194719;23;20459;-76
2023/07/07 06:54:11;;;;;;;20.65;5.97;;;;;;;22.17;81.76;101645.25;6219466;23;20440;-76
2023/07/07 06:56:37;;;;;;;12.10;5.15;;;;;;;22.92;79.65;101658.72;6193968;23;20095;-76
2023/07/07 06:59:06;;;;;;;10.48;5.53;;;;;;;23.50;74.70;101663.94;6218967;23;20364;-76
2023/07/07 07:01:31;;;;;;;9.50;5.10;;;;;;;23.67;73.98;101653.47;6246379;23;20065;-76
2023/07/07 07:04:00;;;;;;;15.73;5.90;;;;;;;23.37;74.89;101658.97;6169429;23;20095;-77
2023/07/07 07:06:26;;;;;;;12.15;5.43;;;;;;;23.98;72.30;101666.50;6194036;23;20436;-77
2023/07/07 07:08:52;;;;;;;9.65;5.00;;;;;;;24.44;71.10;101666.34;6219022;23;20008;-76
2023/07/07 07:11:17;;;;;;;9.55;4.65;;;;;;;23.92;69.13;101664.47;6246421;23;19996;-74
2023/07/07 07:13:43;;;;;;;11.70;5.18;;;;;;;25.10;69.23;101669.19;6219047;23;20086;-74
2023/07/07 07:16:08;;;;;;;8.15;5.03;;;;;;;24.25;71.46;101662.19;6219288;23;20012;-74
2023/07/07 07:18:34;;;;;;;13.77;6.30;;;;;;;24.03;75.57;101664.00;6194160;23;20012;-74
2023/07/07 07:21:00;;;;;;;11.27;6.40;;;;;;;24.58;74.48;101661.84;6218998;23;20015;-74
2023/07/07 07:23:25;;;;;;;13.45;5.85;;;;;;;25.05;71.57;101674.47;6218788;23;20011;-75
2023/07/07 07:25:50;;;;;;;10.05;5.65;;;;;;;25.06;71.00;101666.97;6193796;23;20012;-74
2023/07/07 07:28:16;;;;;;;11.93;5.55;;;;;;;25.71;65.20;101670.69;6193902;23;20012;-74
2023/07/07 07:30:42;;;;;;;17.50;6.38;;;;;;;25.14;65.84;101675.25;6218688;23;20019;-74
2023/07/07 07:33:15;;;;;;;9.68;6.05;;;;;;;25.08;67.73;101674.09;6245743;23;20012;-74
2023/07/07 07:35:41;;;;;;;7.68;5.40;;;;;;;25.55;66.83;101668.13;6219175;23;20038;-74
2023/07/07 07:38:08;;;;;;;12.27;5.63;;;;;;;26.44;62.92;101673.19;6218957;23;20079;-74
2023/07/07 07:40:33;;;;;;;17.25;6.38;;;;;;;26.95;59.40;101674.75;6218861;23;20375;-74
2023/07/07 07:42:59;;;;;;;8.70;4.03;;;;;;;27.52;56.03;101674.53;6246045;23;20007;-74
2023/07/07 07:45:25;;;;;;;10.18;4.78;;;;;;;25.67;62.70;101675.81;6194121;23;20511;-74
2023/07/07 07:47:51;;;;;;;8.82;3.90;;;;;;;25.36;62.87;101675.31;6219136;23;20309;-75
2023/07/07 07:50:18;;;;;;;10.48;5.32;;;;;;;26.82;59.87;101681.19;6219451;23;20008;-74
2023/07/07 07:52:43;;;;;;;11.50;6.00;;;;;;;25.82;63.34;101670.13;6245480;23;20087;-74
2023/07/07 07:55:09;;;;;;;9.68;2.78;;;;;;;25.85;56.74;101672.53;6218719;23;20436;-74
2023/07/07 07:57:35;;;;;;;5.53;2.65;;;;;;;26.45;53.54;101674.06;6245343;23;20012;-74
2023/07/07 08:00:00;;;;;;;2.53;1.92;;;;;;;25.88;55.00;101673.22;6245340;23;20022;-75
2023/07/07 08:02:26;;;;;;;7.22;3.10;;;;;;;26.23;55.85;101679.75;6245633;23;20034;-75
2023/07/07 08:04:51;;;;;;;4.95;2.17;;;;;;;26.13;54.20;101682.91;6245201;23;20012;-75
2023/07/07 08:07:17;;;;;;;5.22;2.10;;;;;;;26.71;53.66;101678.97;6193779;23;20432;-74
2023/07/07 08:09:42;;;;;;;8.55;2.80;;;;;;;27.26;52.71;101679.84;6218658;23;20499;-75
2023/07/07 08:12:09;;;;;;;8.85;3.50;;;;;;;28.69;50.65;101681.38;6193925;23;20111;-75
2023/07/07 08:14:36;;;;;;;7.78;2.42;;;;;;;27.24;49.73;101675.53;6218282;23;20050;-75
2023/07/07 08:17:05;;;;;;;10.05;2.72;;;;;;;26.68;52.06;101679.38;6193614;23;20022;-75
2023/07/07 08:19:34;;;;;;;5.85;2.72;;;;;;;27.02;53.13;101678.47;6218546;23;20063;-75
2023/07/07 08:22:00;;;;;;;12.63;3.08;;;;;;;27.92;52.32;101685.78;6245138;23;20012;-75
2023/07/07 08:24:26;;;;;;;6.15;3.33;;;;;;;28.53;49.88;101685.53;6168772;23;20067;-75
2023/07/07 08:26:52;;;;;;;11.75;2.65;;;;;;;29.08;49.43;101689.91;6218361;23;20011;-75
2023/07/07 08:29:18;;;;;;;7.00;2.20;;;;;;;28.33;49.38;101691.19;6179543;23;20338;-74
2023/07/07 08:31:43;;;;;;;11.25;2.85;;;;;;;27.32;50.64;101683.78;6158854;23;20060;-75
2023/07/07 08:34:09;;;;;;;7.00;2.53;;;;;;;26.99;51.93;101683.63;6183480;23;20207;-75
2023/07/07 08:36:34;;;;;;;6.28;2.25;;;;;;;27.54;50.81;101681.66;6134129;23;20033;-75
2023/07/07 08:39:09;;;;;;;4.72;2.20;;;;;;;27.49;51.70;101679.47;6183743;23;20013;-75
2023/07/07 08:41:34;;;;;;;6.50;2.47;;;;;;;28.22;50.64;101692.75;6184704;23;20499;-75
2023/07/07 08:44:00;;;;;;;4.38;2.65;;;;;;;27.87;49.69;101684.47;6185071;23;20147;-75
2023/07/07 08:47:01;;;;;;;7.70;1.98;;;;;;;27.79;52.40;101684.69;6183314;23;20013;-75
2023/07/07 08:50:01;;;;;;;6.60;2.63;;;;;;;27.67;49.66;101683.63;6183644;23;20056;-75
2023/07/07 08:52:45;;;;;;;10.45;2.42;;;;;;;28.00;48.60;101686.47;6181460;23;20009;-75
2023/07/07 08:55:49;;;;;;;7.05;2.20;;;;;;;28.87;46.75;101679.81;6183041;23;20091;-75
2023/07/07 08:58:30;;;;;;;5.50;2.10;;;;;;;28.42;48.61;101683.38;6085730;23;20341;-75
2023/07/07 09:01:01;;;;;;;7.07;1.95;;;;;;;29.18;43.31;101693.13;6158356;23;20016;-75
2023/07/07 09:03:50;;;;;;;5.05;2.00;;;;;;;29.32;44.45;101683.50;6184478;23;20009;-75
2023/07/07 09:06:29;;;;;;;6.32;2.20;;;;;;;28.38;45.94;101682.09;6167860;23;20036;-75
2023/07/07 09:09:27;;;;;;;4.97;2.10;;;;;;;28.74;47.27;101675.94;6158374;23;20009;-75
2023/07/07 09:12:05;;;;;;;8.90;2.38;;;;;;;29.26;45.66;101686.38;6157987;23;20322;-75
2023/07/07 09:14:31;;;;;;;7.55;2.28;;;;;;;29.62;44.95;101688.50;6183082;23;20009;-75
2023/07/07 09:17:06;;;;;;;6.95;2.10;;;;;;;29.87;43.17;101685.72;6133837;23;20059;-75
2023/07/07 09:19:40;;;;;;;4.18;1.73;;;;;;;28.82;46.02;101685.25;6182983;23;20081;-75
2023/07/07 09:22:35;;;;;;;6.85;2.15;;;;;;;28.97;44.16;101688.63;6183195;23;20381;-75
2023/07/07 09:25:26;;;;;;;5.13;2.00;;;;;;;29.19;40.52;101677.94;6155119;23;20036;-75
2023/07/07 09:27:59;;;;;;;12.80;2.00;;;;;;;29.17;39.33;101682.88;6158002;23;20015;-76
2023/07/07 09:30:42;;;;;;;6.95;1.77;;;;;;;29.69;39.82;101675.19;6208359;23;20017;-75
2023/07/07 09:33:12;;;;;;;6.47;1.60;;;;;;;28.55;40.78;101674.91;6184797;23;20009;-75
2023/07/07 09:35:44;;;;;;;6.72;1.85;;;;;;;28.88;39.93;101668.31;6186361;23;20389;-75
2023/07/07 09:38:30;;;;;;;4.03;1.90;;;;;;;30.46;38.99;101671.28;6186355;23;20009;-75
2023/07/07 09:41:24;;;;;;;4.22;1.67;;;;;;;29.85;38.56;101670.13;6186448;23;20057;-75
2023/07/07 09:44:08;;;;;;;4.03;1.80;;;;;;;29.99;38.97;101668.03;6056825;23;20015;-76
2023/07/07 09:46:52;;;;;;;9.02;1.90;;;;;;;29.17;40.14;101670.75;6184715;23;20075;-75
2023/07/07 09:49:27;;;;;;;5.03;1.85;;;;;;;28.69;39.06;101669.25;6186266;23;20088;-75
2023/07/07 09:52:03;;;;;;;3.35;2.03;;;;;;;29.11;38.39;101664.94;6159748;23;20345;-75
2023/07/07 09:54:31;;;;;;;8.68;2.00;;;;;;;28.65;38.30;101659.53;6184847;23;20326;-74
2023/07/07 09:57:05;;;;;;;7.15;1.90;;;;;;;29.43;38.26;101652.81;6184597;23;20039;-76
2023/07/07 09:59:38;;;;;;;4.97;1.65;;;;;;;29.75;36.94;101653.66;6159622;23;20013;-77
2023/07/07 10:05:23;;;;;;;10.65;2.33;;;;;;;29.75;37.47;101652.81;6184525;23;20009;-76
2023/07/07 10:07:49;;;;;;;6.18;1.92;;;;;;;30.23;35.54;101654.97;6159789;23;20441;-74
2023/07/07 10:10:15;;;;;;;5.22;2.15;;;;;;;29.51;37.73;101652.53;6159411;23;20013;-75
2023/07/07 10:12:41;;;;;;;4.05;1.90;;;;;;;29.33;40.00;101644.84;6184429;23;20020;-76
2023/07/07 10:15:32;;;;;;;4.75;1.65;;;;;;;29.60;37.50;101650.28;6186075;23;20113;-75
2023/07/07 10:18:16;;;;;;;10.43;2.05;;;;;;;30.38;34.24;101648.97;6168119;23;20013;-75
2023/07/07 10:20:41;;;;;;;4.72;2.00;;;;;;;29.09;38.06;101638.91;6184484;23;20013;-76
2023/07/07 10:23:12;;;;;;;8.77;1.90;;;;;;;29.09;36.98;101646.50;6185051;23;20024;-75
2023/07/07 10:25:39;;;;;;;4.38;1.88;;;;;;;28.80;35.27;101633.88;6184110;23;20087;-76
2023/07/07 10:28:09;;;;;;;6.40;1.90;;;;;;;29.92;33.74;101641.81;6184623;23;20014;-76
2023/07/07 10:30:37;;;;;;;7.93;2.50;;;;;;;29.81;35.01;101638.66;6183978;23;20318;-75
2023/07/07 10:33:05;;;;;;;5.55;1.92;;;;;;;29.61;36.24;101635.97;6215088;23;20107;-76
2023/07/07 10:35:31;;;;;;;4.68;1.85;;;;;;;29.44;35.51;101634.81;6216282;23;20022;-76
2023/07/07 10:38:03;;;;;;;6.95;1.83;;;;;;;28.73;35.38;101633.91;6216588;23;20008;-75
2023/07/07 10:40:30;;;;;;;5.82;1.67;;;;;;;29.52;35.23;101638.22;6216162;23;20059;-76
2023/07/07 10:42:56;;;;;;;3.95;1.70;;;;;;;29.64;35.28;101637.47;6189327;23;20424;-76
2023/07/07 10:45:22;;;;;;;6.05;1.88;;;;;;;30.22;33.22;101639.13;6189670;23;20004;-76
2023/07/07 10:47:48;;;;;;;2.90;1.83;;;;;;;29.58;33.12;101633.63;6214877;23;20294;-76
2023/07/07 10:50:16;;;;;;;4.72;1.70;;;;;;;29.35;36.08;101627.69;6189663;23;20345;-76
2023/07/07 10:52:52;;;;;;;5.15;1.90;;;;;;;29.58;36.07;101621.44;6215007;23;20508;-75
2023/07/07 10:55:24;;;;;;;7.65;2.10;;;;;;;29.95;35.28;101625.28;6214633;23;20008;-76
2023/07/07 10:58:06;;;;;;;;;;;;;;;29.75;34.01;101621.75;6214990;23;20060;-76
2023/07/07 11:00:44;;;;;;;4.03;2.10;;;;;;;29.05;34.00;101622.66;6216341;23;19954;-76
2023/07/07 11:03:42;;;;;;;3.40;2.00;;;;;;;29.48;33.10;101625.66;6216248;23;20015;-76
2023/07/07 11:06:40;;;;;;;4.43;2.00;;;;;;;30.17;32.70;101622.88;6214874;23;20009;-76
2023/07/07 11:09:29;;;;;;;4.68;1.90;;;;;;;29.83;32.85;101616.69;6216330;23;20013;-76
2023/07/07 11:12:06;;;;;;;11.52;1.98;;;;;;;29.56;34.16;101618.00;6215960;23;20008;-76
2023/07/07 11:14:41;;;;;;;5.10;1.90;;;;;;;29.76;33.71;101617.81;6214325;23;20035;-76
2023/07/07 11:17:32;;;;;;;6.05;2.03;;;;;;;29.90;35.15;101613.81;6216088;23;20012;-76
2023/07/07 11:20:10;;;;;;;7.55;2.22;;;;;;;29.55;33.80;101614.31;6214704;23;20460;-76
2023/07/07 11:22:49;;;;;;;4.82;2.95;;;;;;;30.09;32.86;101611.91;6214747;23;20031;-75
2023/07/07 11:25:21;;;;;;;12.13;2.10;;;;;;;29.58;34.78;101613.88;6214515;23;20007;-76
2023/07/07 11:28:11;;;;;;;4.43;1.63;;;;;;;28.97;34.99;101615.31;6214185;23;20008;-77
2023/07/07 11:31:03;;;;;;;3.20;1.70;;;;;;;29.48;32.81;101611.56;6240318;23;20024;-76
2023/07/07 11:34:05;;;;;;;5.38;2.17;;;;;;;29.63;33.09;101615.97;6193887;23;20081;-76